Vulcan, Canada
Current Conditions -  °F | °C
As of 9:00 AM on Wednesday 26 Nov 2014 (Local Time) from CYQL Reporting Station
Overcast Overcast  
Wind Chill: -6°   Ceiling: 7000
Heat Index: -2°   Visibility: 15mi
Dew Point: -3°   Wind: 8mph
Humidity: 93%   Direction: 140°SE
Pressure: 30.12"   Gusts: NA
Location:  50.4°N, 113.25°W
Report Text: CYQL 261600Z 14007KT 15SM FEW060 OVC070 M02/M03 A3012 RMK SC1AS7 SLP241
Loading
Personal Weather Stations






























Interactive Weather Map New forecast layout! Learn more

10-Day Weather Forecast

Advertisements
Track Severe Weather on mobile